Time;durP1;ratioP1;P1;durP2;ratioP2;P2;SDS_P1;SDS_P2;PMS_P1;PMS_P2;Temp;Humidity;BMP_temperature;BMP_pressure;BME280_temperature;BME280_humidity;BME280_pressure;Samples;Min_cycle;Max_cycle;Signal;HPM_P1;HPM_P2
2020/12/09 00:00:08;;;;;;;3.22;3.00;;;17.40;54.40;;;;;;5046906;28;20171;-59
2020/12/09 00:02:34;;;;;;;3.80;3.20;;;17.40;54.30;;;;;;5045875;28;20640;-57
2020/12/09 00:05:00;;;;;;;3.38;2.50;;;17.30;54.30;;;;;;5046929;28;20252;-59
2020/12/09 00:07:26;;;;;;;3.83;3.20;;;17.30;54.40;;;;;;5046789;28;20246;-58
2020/12/09 00:09:52;;;;;;;3.08;2.67;;;17.30;54.30;;;;;;5046647;28;20210;-60
2020/12/09 00:12:17;;;;;;;2.97;2.65;;;17.20;54.30;;;;;;5046466;28;20224;-56
2020/12/09 00:14:43;;;;;;;3.33;3.03;;;17.30;54.40;;;;;;5046792;28;20197;-59
2020/12/09 00:17:09;;;;;;;5.75;2.75;;;17.30;54.30;;;;;;5046166;28;20601;-59
2020/12/09 00:19:34;;;;;;;3.50;2.80;;;17.20;54.30;;;;;;5046589;28;20179;-59
2020/12/09 00:22:00;;;;;;;6.53;2.90;;;17.20;54.30;;;;;;5046402;28;20186;-60
2020/12/09 00:24:25;;;;;;;3.08;2.78;;;17.20;54.40;;;;;;5046377;28;20277;-57
2020/12/09 00:26:51;;;;;;;3.47;3.17;;;17.20;54.30;;;;;;5046603;28;20233;-59
2020/12/09 00:29:16;;;;;;;4.25;2.78;;;17.20;54.40;;;;;;5046754;28;20179;-59
2020/12/09 00:31:42;;;;;;;2.78;2.58;;;17.10;54.30;;;;;;5046081;28;20207;-60
2020/12/09 00:34:07;;;;;;;4.22;2.88;;;17.10;54.30;;;;;;5046237;28;20171;-59
2020/12/09 00:36:33;;;;;;;5.35;2.70;;;17.10;54.20;;;;;;5045897;28;20175;-60
2020/12/09 00:38:58;;;;;;;2.83;2.55;;;17.10;54.30;;;;;;5046096;28;20707;-59
2020/12/09 00:41:26;;;;;;;3.58;2.92;;;17.00;54.30;;;;;;5046412;28;20175;-59
2020/12/09 00:43:52;;;;;;;2.63;2.42;;;17.10;54.30;;;;;;5045985;28;20242;-60
2020/12/09 00:46:19;;;;;;;3.33;2.70;;;17.00;54.30;;;;;;5046102;28;20615;-60
2020/12/09 00:48:45;;;;;;;3.15;2.85;;;17.00;54.20;;;;;;5045843;28;20221;-60
2020/12/09 00:51:14;;;;;;;3.20;2.80;;;17.00;54.20;;;;;;5045968;28;20571;-60
2020/12/09 00:53:40;;;;;;;3.08;2.78;;;17.00;54.20;;;;;;5045957;28;20171;-60
2020/12/09 00:56:07;;;;;;;3.40;2.83;;;17.00;54.20;;;;;;5046130;28;20178;-61
2020/12/09 00:58:32;;;;;;;2.80;2.60;;;16.90;54.20;;;;;;5046032;28;20174;-59
2020/12/09 01:00:58;;;;;;;2.72;2.53;;;17.00;54.20;;;;;;5045756;28;20227;-60
2020/12/09 01:03:23;;;;;;;2.78;2.47;;;17.00;54.20;;;;;;5045614;28;20625;-57
2020/12/09 01:05:49;;;;;;;2.92;2.72;;;17.00;54.30;;;;;;5045824;28;20187;-59
2020/12/09 01:08:14;;;;;;;3.33;3.03;;;16.90;54.20;;;;;;5045758;28;20183;-57
2020/12/09 01:10:40;;;;;;;2.70;2.50;;;16.90;54.20;;;;;;5045337;28;20233;-58
2020/12/09 01:13:05;;;;;;;3.00;2.80;;;16.90;54.20;;;;;;5045014;28;20179;-55
2020/12/09 01:15:31;;;;;;;3.03;2.67;;;16.90;54.10;;;;;;5044957;28;20179;-59
2020/12/09 01:17:56;;;;;;;3.05;2.75;;;16.90;54.20;;;;;;5045743;28;20629;-59
2020/12/09 01:20:22;;;;;;;3.28;3.00;;;16.80;54.20;;;;;;5045664;28;20417;-58
2020/12/09 01:22:48;;;;;;;2.67;2.47;;;16.80;54.10;;;;;;5045260;28;20206;-59
2020/12/09 01:25:13;;;;;;;3.00;2.80;;;16.80;54.10;;;;;;5045560;28;20178;-61
2020/12/09 01:27:39;;;;;;;3.10;2.72;;;16.80;54.10;;;;;;5045110;28;20652;-57
2020/12/09 01:30:04;;;;;;;2.72;2.45;;;16.80;54.10;;;;;;5044730;28;20175;-58
2020/12/09 01:32:30;;;;;;;2.92;2.70;;;16.80;54.10;;;;;;5045484;28;20190;-58
2020/12/09 01:34:56;;;;;;;2.80;2.50;;;16.80;54.20;;;;;;5027737;28;20179;-58
2020/12/09 01:37:21;;;;;;;2.83;2.60;;;16.80;54.10;;;;;;5044869;28;20206;-57
2020/12/09 01:39:47;;;;;;;3.15;2.55;;;16.80;54.10;;;;;;5045261;28;20183;-59
2020/12/09 01:42:12;;;;;;;3.67;2.50;;;16.70;54.10;;;;;;5044893;28;20175;-60
2020/12/09 01:44:38;;;;;;;2.40;2.20;;;16.70;54.00;;;;;;5045073;28;20909;-59
2020/12/09 01:47:05;;;;;;;3.35;3.00;;;16.70;54.10;;;;;;5045113;28;20261;-60
2020/12/09 01:49:31;;;;;;;3.78;2.92;;;16.70;54.00;;;;;;5045098;28;20179;-57
2020/12/09 01:52:02;;;;;;;3.03;2.75;;;16.70;54.10;;;;;;5027347;28;21011;-58
2020/12/09 01:54:28;;;;;;;3.13;2.88;;;16.70;54.00;;;;;;5044994;28;20174;-59
2020/12/09 01:57:06;;;;;;;3.38;3.08;;;16.70;54.00;;;;;;5045155;28;20178;-59
2020/12/09 01:59:33;;;;;;;2.80;2.60;;;16.70;54.10;;;;;;5044768;28;20189;-59
2020/12/09 02:01:59;;;;;;;3.97;3.58;;;16.70;54.10;;;;;;5045293;28;20182;-59
2020/12/09 02:04:24;;;;;;;3.00;2.80;;;16.60;54.00;;;;;;5044717;28;20175;-60
2020/12/09 02:06:53;;;;;;;3.15;2.85;;;16.60;53.90;;;;;;5045103;28;20179;-59
2020/12/09 02:09:19;;;;;;;2.80;2.60;;;16.70;54.00;;;;;;5010871;28;20257;-58
2020/12/09 02:11:45;;;;;;;2.78;2.58;;;16.60;54.00;;;;;;5044782;28;20215;-59
2020/12/09 02:14:11;;;;;;;3.00;2.80;;;16.60;54.00;;;;;;5045061;28;20202;-59
2020/12/09 02:16:37;;;;;;;2.95;2.67;;;16.60;54.00;;;;;;5045058;28;20246;-59
2020/12/09 02:19:02;;;;;;;2.92;2.72;;;16.60;54.00;;;;;;5044579;28;20187;-60
2020/12/09 02:21:33;;;;;;;3.50;3.20;;;16.60;53.90;;;;;;5044985;28;20222;-59
2020/12/09 02:23:58;;;;;;;3.15;2.85;;;16.60;53.90;;;;;;5044847;28;20197;-59
2020/12/09 02:26:24;;;;;;;2.83;2.63;;;16.60;53.90;;;;;;5047527;28;20580;-59
2020/12/09 02:28:49;;;;;;;3.40;3.10;;;16.60;53.90;;;;;;5048615;28;20186;-58
2020/12/09 02:31:15;;;;;;;3.10;2.80;;;16.60;54.00;;;;;;5048709;28;20207;-58
2020/12/09 02:33:40;;;;;;;3.22;2.92;;;16.50;53.90;;;;;;5048296;28;20175;-58
2020/12/09 02:36:06;;;;;;;3.00;2.75;;;16.50;53.90;;;;;;5048684;28;20537;-59
2020/12/09 02:38:33;;;;;;;3.40;3.10;;;16.50;53.80;;;;;;5048598;28;20545;-58
2020/12/09 02:40:59;;;;;;;3.10;2.80;;;16.50;53.80;;;;;;5048301;28;20265;-59
2020/12/09 02:43:24;;;;;;;3.22;2.90;;;16.50;53.80;;;;;;5048398;28;20621;-59
2020/12/09 02:45:50;;;;;;;3.20;2.90;;;16.50;53.80;;;;;;5048784;28;20183;-58
2020/12/09 02:48:15;;;;;;;3.47;3.22;;;16.40;53.80;;;;;;5048035;28;20175;-60
2020/12/09 02:50:41;;;;;;;3.00;2.80;;;16.40;53.80;;;;;;5048214;28;20210;-60
2020/12/09 02:53:06;;;;;;;3.70;3.08;;;16.50;53.90;;;;;;5048422;28;20183;-60
2020/12/09 02:55:32;;;;;;;3.28;2.72;;;16.40;53.80;;;;;;5048125;28;20179;-57
2020/12/09 02:57:57;;;;;;;3.40;3.10;;;16.40;53.80;;;;;;5047883;28;20286;-61
2020/12/09 03:00:23;;;;;;;2.80;2.60;;;16.40;53.80;;;;;;5047611;28;20258;-58
2020/12/09 03:02:49;;;;;;;3.40;3.10;;;16.40;53.80;;;;;;5047960;28;20262;-59
2020/12/09 03:05:14;;;;;;;2.92;2.72;;;16.40;53.80;;;;;;5047956;28;20186;-58
2020/12/09 03:07:40;;;;;;;3.10;2.90;;;16.30;53.70;;;;;;5047716;28;20191;-52
2020/12/09 03:10:05;;;;;;;2.88;2.67;;;16.40;53.80;;;;;;5047474;28;20175;-58
2020/12/09 03:12:31;;;;;;;3.22;2.72;;;16.40;53.80;;;;;;5047689;28;20179;-58
2020/12/09 03:14:56;;;;;;;3.28;3.08;;;16.40;53.80;;;;;;5047712;28;20219;-56
2020/12/09 03:17:22;;;;;;;3.20;2.90;;;16.30;53.80;;;;;;5047681;28;21025;-59
2020/12/09 03:19:47;;;;;;;2.83;2.63;;;16.30;53.80;;;;;;5047450;28;20278;-57
2020/12/09 03:22:13;;;;;;;3.33;3.03;;;16.30;53.70;;;;;;5047783;28;20249;-58
2020/12/09 03:24:38;;;;;;;3.33;3.03;;;16.30;53.70;;;;;;5047208;28;20213;-59
2020/12/09 03:27:04;;;;;;;2.42;2.22;;;16.30;53.70;;;;;;5047581;28;20179;-58
2020/12/09 03:29:30;;;;;;;3.15;2.95;;;16.30;53.70;;;;;;5047790;28;20187;-57
2020/12/09 03:31:55;;;;;;;2.97;2.67;;;16.30;53.80;;;;;;5047207;28;20260;-58
2020/12/09 03:34:21;;;;;;;3.10;2.90;;;16.30;53.70;;;;;;5047396;28;20257;-58
2020/12/09 03:36:46;;;;;;;2.90;2.70;;;16.30;53.80;;;;;;5046150;28;20183;-57
2020/12/09 03:39:12;;;;;;;3.05;2.85;;;16.30;53.80;;;;;;5047120;28;20258;-57
2020/12/09 03:41:39;;;;;;;2.78;2.58;;;16.20;53.70;;;;;;5047171;28;20194;-58
2020/12/09 03:44:05;;;;;;;3.13;2.83;;;16.20;53.60;;;;;;5047387;28;20179;-59
2020/12/09 03:46:30;;;;;;;3.55;3.25;;;16.20;53.70;;;;;;5046853;28;20542;-59
2020/12/09 03:48:56;;;;;;;3.03;2.83;;;16.20;54.30;;;;;;5047294;28;20175;-61
2020/12/09 03:51:21;;;;;;;3.20;2.90;;;16.20;53.70;;;;;;5046837;28;20729;-60
2020/12/09 03:53:47;;;;;;;3.15;2.95;;;16.20;53.70;;;;;;5046876;28;20250;-58
2020/12/09 03:56:12;;;;;;;3.10;2.85;;;16.20;53.70;;;;;;5046863;28;20187;-59
2020/12/09 03:58:38;;;;;;;2.95;2.75;;;16.20;53.70;;;;;;5047163;28;20684;-59
2020/12/09 04:01:03;;;;;;;3.22;3.00;;;16.20;53.70;;;;;;5047110;28;20520;-58
2020/12/09 04:03:29;;;;;;;3.10;2.90;;;16.20;53.70;;;;;;5047092;28;20202;-60
2020/12/09 04:05:54;;;;;;;3.97;3.30;;;16.20;53.70;;;;;;5047097;28;20175;-58
2020/12/09 04:08:20;;;;;;;3.13;2.92;;;16.20;53.70;;;;;;5046908;28;20187;-58
2020/12/09 04:10:45;;;;;;;3.17;2.90;;;16.20;53.70;;;;;;5046680;28;20202;-58
2020/12/09 04:13:11;;;;;;;3.33;3.03;;;16.20;53.70;;;;;;5046587;28;20178;-59
2020/12/09 04:15:37;;;;;;;3.38;3.15;;;16.20;53.80;;;;;;5046569;28;20211;-57
2020/12/09 04:18:02;;;;;;;3.58;3.28;;;16.10;53.70;;;;;;5046926;28;20179;-59
2020/12/09 04:20:28;;;;;;;3.00;2.80;;;16.10;53.70;;;;;;5046605;28;20183;-60
2020/12/09 04:22:53;;;;;;;3.35;3.05;;;16.10;53.70;;;;;;5046466;28;20195;-60
2020/12/09 04:25:19;;;;;;;3.40;3.20;;;16.20;53.70;;;;;;5046058;28;20175;-59
2020/12/09 04:27:44;;;;;;;3.72;3.42;;;16.10;53.70;;;;;;5046469;28;20178;-59
2020/12/09 04:30:10;;;;;;;3.40;3.10;;;16.10;53.60;;;;;;5046692;28;20633;-58
2020/12/09 04:32:35;;;;;;;3.92;3.40;;;16.10;53.70;;;;;;5046223;28;20854;-56
2020/12/09 04:35:01;;;;;;;3.72;3.42;;;16.10;53.70;;;;;;5046380;28;20217;-58
2020/12/09 04:37:27;;;;;;;3.15;2.85;;;16.00;53.60;;;;;;5028149;28;20286;-57
2020/12/09 04:39:56;;;;;;;3.25;2.95;;;16.10;53.70;;;;;;5045857;28;20224;-59
2020/12/09 04:42:22;;;;;;;3.65;3.35;;;16.00;53.60;;;;;;5046108;28;20644;-59
2020/12/09 04:44:48;;;;;;;3.65;3.35;;;16.10;53.70;;;;;;5046048;28;20183;-60
2020/12/09 04:47:22;;;;;;;3.60;3.30;;;16.10;53.70;;;;;;5045646;28;20183;-59
2020/12/09 04:49:48;;;;;;;3.67;3.38;;;16.00;53.70;;;;;;5045900;28;20305;-59
2020/12/09 04:52:30;;;;;;;3.75;3.45;;;16.00;53.70;;;;;;5046153;28;20207;-59
2020/12/09 04:55:04;;;;;;;3.38;3.08;;;16.00;53.70;;;;;;5045807;28;20732;-60
2020/12/09 04:57:42;;;;;;;4.28;3.97;;;16.00;53.80;;;;;;5046054;28;20171;-54
2020/12/09 05:00:09;;;;;;;3.70;3.40;;;16.00;53.70;;;;;;5045868;28;20633;-60
2020/12/09 05:02:40;;;;;;;3.63;3.33;;;16.00;53.70;;;;;;5046080;28;20167;-60
2020/12/09 05:05:06;;;;;;;3.47;3.17;;;16.00;53.80;;;;;;5045602;28;20586;-56
2020/12/09 05:07:35;;;;;;;3.90;3.60;;;16.00;53.80;;;;;;5045136;28;20171;-59
2020/12/09 05:10:02;;;;;;;3.40;3.10;;;16.00;53.80;;;;;;5045638;28;20175;-59
2020/12/09 05:12:28;;;;;;;3.97;3.30;;;16.00;53.80;;;;;;5045377;28;20206;-58
2020/12/09 05:14:53;;;;;;;3.65;3.35;;;15.90;53.80;;;;;;5011296;28;20232;-57
2020/12/09 05:17:20;;;;;;;3.85;3.53;;;15.90;53.80;;;;;;5011272;28;20258;-59
2020/12/09 05:19:46;;;;;;;3.83;3.53;;;16.00;53.90;;;;;;5045673;28;20197;-60
2020/12/09 05:22:22;;;;;;;3.90;3.50;;;15.90;53.80;;;;;;5045352;28;20183;-59
2020/12/09 05:24:47;;;;;;;3.45;3.25;;;15.90;53.90;;;;;;5045171;28;20218;-59
2020/12/09 05:27:13;;;;;;;4.07;3.67;;;15.90;53.90;;;;;;5045417;28;20210;-60
2020/12/09 05:29:49;;;;;;;3.65;3.35;;;15.90;54.40;;;;;;5045320;28;20678;-56
2020/12/09 05:32:15;;;;;;;3.40;3.20;;;15.90;53.80;;;;;;5044999;28;20702;-60
2020/12/09 05:34:40;;;;;;;3.78;3.47;;;15.90;53.80;;;;;;5045338;28;20191;-59
2020/12/09 05:37:07;;;;;;;3.58;3.35;;;15.90;53.80;;;;;;5045599;28;20894;-60
2020/12/09 05:39:33;;;;;;;3.60;3.30;;;15.90;53.90;;;;;;5027572;28;20167;-57
2020/12/09 05:42:12;;;;;;;4.00;3.70;;;15.90;53.90;;;;;;5045493;28;20659;-60
2020/12/09 05:44:40;;;;;;;4.07;3.78;;;15.90;53.80;;;;;;5045188;28;20212;-58
2020/12/09 05:47:05;;;;;;;4.28;3.88;;;15.90;53.90;;;;;;5044910;28;20179;-61
2020/12/09 05:49:36;;;;;;;3.88;3.63;;;15.90;53.90;;;;;;5044854;28;20175;-59
2020/12/09 05:52:14;;;;;;;3.88;3.58;;;15.80;53.80;;;;;;5044466;28;20222;-61
2020/12/09 05:54:45;;;;;;;4.75;4.25;;;15.80;53.80;;;;;;5045047;28;20236;-60
2020/12/09 05:57:13;;;;;;;4.85;4.45;;;15.80;53.80;;;;;;5045165;28;20174;-59
2020/12/09 05:59:43;;;;;;;4.10;3.70;;;15.80;53.90;;;;;;5044929;28;20175;-58
2020/12/09 06:02:22;;;;;;;3.83;3.53;;;15.90;54.10;;;;;;5049093;28;20182;-56
2020/12/09 06:04:53;;;;;;;3.90;3.60;;;16.00;54.10;;;;;;5031621;28;20186;-58
2020/12/09 06:07:19;;;;;;;4.13;3.67;;;16.10;54.30;;;;;;5048745;28;20297;-57
2020/12/09 06:10:04;;;;;;;3.40;3.13;;;16.30;54.10;;;;;;5048979;28;20186;-56
2020/12/09 06:12:29;;;;;;;4.32;3.92;;;16.60;53.80;;;;;;5048884;28;20336;-60
2020/12/09 06:15:14;;;;;;;3.40;3.20;;;16.80;53.50;;;;;;5014744;28;20716;-60
2020/12/09 06:17:40;;;;;;;3.40;3.20;;;17.30;52.70;;;;;;5048836;28;20228;-60
2020/12/09 06:20:05;;;;;;;3.33;3.03;;;17.60;52.00;;;;;;5048965;28;20187;-59
2020/12/09 06:22:32;;;;;;;3.20;2.92;;;17.90;51.50;;;;;;5048904;28;20281;-60
2020/12/09 06:25:01;;;;;;;3.55;3.25;;;18.20;51.00;;;;;;5048536;28;20206;-61
2020/12/09 06:27:33;;;;;;;3.33;3.05;;;18.50;50.70;;;;;;5031190;28;20167;-59
2020/12/09 06:29:59;;;;;;;3.05;2.85;;;18.60;50.30;;;;;;5048251;28;20185;-58
2020/12/09 06:32:25;;;;;;;3.42;3.13;;;18.70;50.20;;;;;;5048326;28;20214;-60
2020/12/09 06:35:06;;;;;;;3.00;2.80;;;18.80;50.20;;;;;;5048605;28;20186;-57
2020/12/09 06:37:31;;;;;;;3.00;2.80;;;18.80;50.10;;;;;;5048285;28;20254;-60
2020/12/09 06:40:07;;;;;;;3.75;3.45;;;18.80;50.10;;;;;;5048409;28;20278;-58
2020/12/09 06:42:33;;;;;;;3.35;3.15;;;18.80;50.10;;;;;;5048509;28;20171;-60
2020/12/09 06:45:00;;;;;;;2.92;2.72;;;18.80;50.20;;;;;;5048407;28;20645;-61
2020/12/09 06:47:26;;;;;;;3.03;2.83;;;18.80;50.30;;;;;;5048495;28;20167;-58
2020/12/09 06:49:52;;;;;;;3.22;3.03;;;18.80;50.30;;;;;;5048376;28;20543;-60
2020/12/09 06:52:28;;;;;;;3.45;3.15;;;18.80;50.40;;;;;;5047960;28;20309;-61
2020/12/09 06:54:54;;;;;;;3.72;3.42;;;18.80;50.40;;;;;;5048040;28;20177;-60
2020/12/09 06:57:25;;;;;;;3.67;3.38;;;18.70;50.40;;;;;;5048034;28;20179;-59
2020/12/09 07:00:17;;;;;;;3.63;3.33;;;18.60;50.60;;;;;;5030143;28;20190;-60
2020/12/09 07:02:43;;;;;;;3.53;3.33;;;18.60;50.80;;;;;;5048168;28;20572;-58
2020/12/09 07:05:10;;;;;;;3.38;3.08;;;18.40;51.00;;;;;;5047856;28;20182;-57
2020/12/09 07:07:42;;;;;;;4.05;3.72;;;18.30;51.20;;;;;;5047808;28;20197;-57
2020/12/09 07:10:18;;;;;;;3.70;3.40;;;18.20;51.40;;;;;;5047759;28;20742;-60
2020/12/09 07:12:44;;;;;;;3.78;3.47;;;18.10;51.50;;;;;;5047865;28;20214;-61
2020/12/09 07:15:10;;;;;;;3.60;3.30;;;18.10;51.60;;;;;;5047929;28;20286;-59
2020/12/09 07:17:35;;;;;;;4.45;4.05;;;18.10;51.70;;;;;;5047557;28;20987;-61
2020/12/09 07:20:01;;;;;;;4.20;3.70;;;18.10;51.80;;;;;;5047416;28;20186;-61
2020/12/09 07:22:27;;;;;;;3.58;3.28;;;18.00;51.90;;;;;;5047590;28;20241;-59
2020/12/09 07:24:54;;;;;;;4.18;3.78;;;17.90;52.00;;;;;;5047978;28;20274;-60
2020/12/09 07:27:21;;;;;;;3.88;3.53;;;17.80;52.10;;;;;;5047435;28;20177;-60
2020/12/09 07:29:48;;;;;;;4.00;3.70;;;17.70;52.30;;;;;;5047573;28;20179;-60
2020/12/09 07:32:16;;;;;;;4.63;4.22;;;17.70;52.40;;;;;;5047244;28;20321;-60
2020/12/09 07:35:11;;;;;;;4.55;4.20;;;17.60;52.50;;;;;;5047461;28;20558;-61
2020/12/09 07:37:42;;;;;;;3.70;3.40;;;17.60;52.40;;;;;;5044449;28;20986;-60
2020/12/09 07:40:24;;;;;;;3.83;3.53;;;17.60;52.50;;;;;;5047773;28;20167;-60
2020/12/09 07:43:10;;;;;;;3.97;3.65;;;17.70;52.40;;;;;;5047257;28;20221;-60
2020/12/09 07:45:40;;;;;;;4.15;3.85;;;17.70;52.30;;;;;;5047192;28;20182;-61
2020/12/09 07:48:09;;;;;;;4.30;4.00;;;17.70;52.30;;;;;;5047268;28;20640;-60
2020/12/09 07:50:35;;;;;;;4.00;3.70;;;17.80;52.20;;;;;;5046976;28;20171;-59
2020/12/09 07:53:01;;;;;;;3.90;3.60;;;17.80;52.30;;;;;;5047115;28;20202;-60
2020/12/09 07:55:26;;;;;;;3.65;3.35;;;17.70;52.30;;;;;;5047455;28;20198;-58
2020/12/09 07:58:01;;;;;;;4.57;4.18;;;17.70;52.40;;;;;;5028989;28;20179;-59
2020/12/09 08:00:26;;;;;;;4.65;4.25;;;17.60;52.50;;;;;;5013957;28;20167;-59
2020/12/09 08:02:52;;;;;;;4.20;3.90;;;17.50;52.60;;;;;;5012808;28;20569;-59
2020/12/09 08:05:19;;;;;;;5.10;4.60;;;17.50;52.70;;;;;;5046874;28;20278;-59
2020/12/09 08:07:58;;;;;;;4.70;4.30;;;17.50;52.70;;;;;;5046587;28;20183;-57
2020/12/09 08:10:28;;;;;;;4.60;4.20;;;17.50;52.60;;;;;;5046450;28;20187;-57
2020/12/09 08:13:07;;;;;;;5.05;4.60;;;17.60;52.60;;;;;;5046769;28;20182;-59
2020/12/09 08:15:34;;;;;;;5.05;4.65;;;17.60;52.50;;;;;;5046566;28;20869;-58
2020/12/09 08:17:59;;;;;;;5.22;4.72;;;17.60;52.40;;;;;;5046626;28;20175;-62
2020/12/09 08:20:25;;;;;;;8.27;5.75;;;17.70;52.30;;;;;;5046421;28;20182;-63
2020/12/09 08:23:01;;;;;;;5.93;5.35;;;17.70;52.50;;;;;;5045506;28;20234;-64
2020/12/09 08:25:28;;;;;;;5.63;5.13;;;17.70;52.30;;;;;;5046626;28;20178;-63
2020/12/09 08:27:54;;;;;;;5.93;5.43;;;17.70;52.20;;;;;;5028939;28;20175;-63
2020/12/09 08:30:24;;;;;;;6.18;5.57;;;17.70;52.30;;;;;;5046352;28;21008;-64
2020/12/09 08:33:00;;;;;;;5.93;5.43;;;17.70;52.20;;;;;;5028798;28;20175;-65
2020/12/09 08:35:27;;;;;;;5.57;4.95;;;17.80;52.30;;;;;;5046269;28;20229;-61
2020/12/09 08:37:52;;;;;;;5.68;5.15;;;17.80;52.20;;;;;;5028375;28;20174;-64
2020/12/09 08:40:18;;;;;;;6.97;5.75;;;17.90;52.10;;;;;;5045946;28;20558;-63
2020/12/09 08:42:51;;;;;;;6.25;5.60;;;17.90;52.10;;;;;;5028437;28;20186;-62
2020/12/09 08:45:17;;;;;;;7.10;6.15;;;17.90;52.00;;;;;;5045847;28;20179;-65
2020/12/09 08:47:42;;;;;;;6.57;5.97;;;18.00;51.90;;;;;;5045958;28;20231;-63
2020/12/09 08:50:08;;;;;;;8.43;6.65;;;18.00;51.80;;;;;;5046018;28;20171;-62
2020/12/09 08:52:33;;;;;;;6.47;5.88;;;18.00;51.70;;;;;;5045911;28;20656;-64
2020/12/09 08:54:59;;;;;;;6.60;5.65;;;18.10;52.40;;;;;;5045948;28;20517;-64
2020/12/09 08:57:24;;;;;;;6.40;5.82;;;18.10;52.30;;;;;;5045907;28;20625;-63
2020/12/09 08:59:50;;;;;;;6.78;6.10;;;18.20;51.60;;;;;;5046080;28;20707;-64
2020/12/09 09:02:16;;;;;;;7.10;6.40;;;18.20;51.60;;;;;;5045664;28;20171;-63
2020/12/09 09:04:41;;;;;;;8.07;5.65;;;18.20;51.60;;;;;;5045632;28;20175;-62
2020/12/09 09:07:07;;;;;;;7.07;6.38;;;18.20;51.90;;;;;;5045571;28;20179;-63
2020/12/09 09:09:32;;;;;;;7.78;6.20;;;18.10;52.30;;;;;;5045276;28;20266;-62
2020/12/09 09:11:58;;;;;;;7.22;6.40;;;18.00;52.40;;;;;;5045978;28;20210;-63
2020/12/09 09:14:24;;;;;;;6.82;6.20;;;18.00;52.80;;;;;;5045867;28;20267;-64
2020/12/09 09:16:49;;;;;;;7.35;6.60;;;17.90;52.70;;;;;;5045521;28;20252;-63
2020/12/09 09:19:15;;;;;;;6.95;6.20;;;17.90;52.80;;;;;;5045443;28;20179;-62
2020/12/09 09:21:41;;;;;;;7.00;6.30;;;17.80;52.90;;;;;;5045524;28;21015;-63
2020/12/09 09:24:06;;;;;;;7.40;6.65;;;17.90;53.00;;;;;;5045462;28;20623;-63
2020/12/09 09:26:33;;;;;;;7.53;6.80;;;17.90;52.90;;;;;;5027919;28;20178;-63
2020/12/09 09:28:59;;;;;;;7.78;6.85;;;17.90;52.90;;;;;;5027678;28;20171;-63
2020/12/09 09:31:24;;;;;;;6.75;6.05;;;17.90;52.80;;;;;;5045186;28;20714;-62
2020/12/09 09:33:50;;;;;;;7.35;6.65;;;18.00;52.80;;;;;;5045212;28;20191;-62
2020/12/09 09:36:15;;;;;;;7.75;6.60;;;18.00;52.70;;;;;;5044363;28;20178;-63
2020/12/09 09:38:41;;;;;;;6.78;6.07;;;18.00;52.80;;;;;;5045195;28;20703;-63
2020/12/09 09:41:06;;;;;;;7.30;6.60;;;17.90;52.80;;;;;;5045645;28;20191;-63
2020/12/09 09:43:32;;;;;;;7.18;6.47;;;17.90;53.10;;;;;;5045292;28;20190;-62
2020/12/09 09:46:00;;;;;;;7.72;7.00;;;17.80;53.10;;;;;;5045099;28;20179;-64
2020/12/09 09:48:25;;;;;;;7.45;6.75;;;17.70;53.20;;;;;;5045165;28;20987;-64
2020/12/09 09:50:51;;;;;;;7.53;6.55;;;17.70;53.40;;;;;;5045035;28;20191;-64
2020/12/09 09:53:16;;;;;;;8.65;7.43;;;17.70;53.40;;;;;;5027197;28;20171;-63
2020/12/09 09:55:42;;;;;;;8.13;7.32;;;17.70;53.40;;;;;;5045035;28;20171;-63
2020/12/09 09:58:07;;;;;;;7.30;6.60;;;17.70;53.40;;;;;;5044610;28;20261;-63
2020/12/09 10:00:33;;;;;;;9.32;6.70;;;17.80;53.40;;;;;;5044727;28;20194;-63
2020/12/09 10:02:59;;;;;;;12.35;7.30;;;17.80;53.30;;;;;;5045169;28;20960;-64
2020/12/09 10:05:25;;;;;;;8.50;7.70;;;17.80;53.20;;;;;;5044789;28;20171;-65
2020/12/09 10:07:50;;;;;;;8.25;7.45;;;17.70;53.40;;;;;;5044957;28;20221;-65
2020/12/09 10:10:16;;;;;;;7.88;7.07;;;17.60;53.60;;;;;;5044622;28;20272;-64
2020/12/09 10:12:41;;;;;;;7.45;6.72;;;17.50;54.00;;;;;;5044575;28;20215;-65
2020/12/09 10:15:07;;;;;;;7.95;7.18;;;17.50;53.90;;;;;;5044832;28;20858;-65
2020/12/09 10:17:33;;;;;;;7.75;6.95;;;17.50;54.10;;;;;;5044853;28;20848;-63
2020/12/09 10:19:59;;;;;;;9.88;8.40;;;17.50;54.10;;;;;;5044794;28;20183;-64
2020/12/09 10:22:25;;;;;;;8.07;7.28;;;17.50;54.20;;;;;;5044572;28;20859;-64
2020/12/09 10:24:51;;;;;;;10.15;6.82;;;17.60;54.10;;;;;;5044656;28;20262;-64
2020/12/09 10:27:16;;;;;;;7.53;6.82;;;17.80;53.80;;;;;;5044893;28;20179;-63
2020/12/09 10:29:43;;;;;;;7.88;6.50;;;18.10;53.50;;;;;;5044612;28;20175;-64
2020/12/09 10:32:09;;;;;;;8.73;6.60;;;18.40;53.60;;;;;;5044334;28;20250;-64
2020/12/09 10:34:38;;;;;;;7.70;6.85;;;18.70;52.40;;;;;;5043746;28;20259;-64
2020/12/09 10:37:03;;;;;;;9.82;6.47;;;18.90;51.90;;;;;;5043921;28;20530;-64
2020/12/09 10:39:29;;;;;;;8.52;7.05;;;19.10;51.70;;;;;;5026004;28;20172;-63
2020/12/09 10:41:54;;;;;;;9.15;6.82;;;19.20;51.60;;;;;;5043618;28;20215;-65
2020/12/09 10:44:20;;;;;;;7.45;6.68;;;19.30;51.50;;;;;;5044161;28;20703;-65
2020/12/09 10:46:46;;;;;;;7.13;6.28;;;19.40;51.30;;;;;;5028367;28;20586;-64
2020/12/09 10:49:12;;;;;;;7.05;5.50;;;19.50;51.30;;;;;;5047105;28;20171;-62
2020/12/09 10:51:47;;;;;;;9.20;6.38;;;19.50;51.10;;;;;;5047113;28;20203;-63
2020/12/09 10:54:13;;;;;;;10.75;6.30;;;19.70;51.00;;;;;;5047388;28;20647;-63
2020/12/09 10:56:39;;;;;;;8.50;5.88;;;19.60;51.00;;;;;;5046970;28;20175;-64
2020/12/09 10:59:04;;;;;;;7.95;5.70;;;19.70;51.00;;;;;;5029023;28;20213;-64
2020/12/09 11:01:32;;;;;;;9.63;5.93;;;19.70;51.00;;;;;;5047087;28;20266;-63
2020/12/09 11:03:57;;;;;;;7.00;6.07;;;19.70;51.00;;;;;;5046976;28;20566;-64
2020/12/09 11:06:30;;;;;;;7.53;6.10;;;19.70;51.10;;;;;;5047261;28;20183;-64
2020/12/09 11:08:56;;;;;;;8.38;6.15;;;19.80;51.00;;;;;;5046900;28;20621;-64
2020/12/09 11:11:22;;;;;;;6.90;6.20;;;19.70;51.10;;;;;;5028812;28;20790;-66
2020/12/09 11:13:48;;;;;;;6.95;6.25;;;19.70;51.20;;;;;;5055128;28;20706;-64
2020/12/09 11:16:14;;;;;;;7.40;6.25;;;19.70;51.10;;;;;;5049917;28;20173;-65
2020/12/09 11:18:40;;;;;;;7.38;5.68;;;19.70;51.20;;;;;;5066164;28;20174;-66
2020/12/09 11:21:06;;;;;;;7.55;5.80;;;19.60;51.20;;;;;;5058172;28;20187;-65
2020/12/09 11:23:31;;;;;;;7.32;5.78;;;19.60;51.30;;;;;;5046476;28;20229;-65
2020/12/09 11:25:57;;;;;;;6.30;5.70;;;19.50;51.30;;;;;;5046518;28;20257;-65
2020/12/09 11:28:23;;;;;;;7.05;6.35;;;19.50;51.20;;;;;;5046266;28;20186;-64
2020/12/09 11:30:48;;;;;;;9.05;6.05;;;19.60;51.30;;;;;;5064061;28;20289;-64
2020/12/09 11:33:14;;;;;;;6.32;5.72;;;19.60;51.30;;;;;;5066381;28;20182;-65
2020/12/09 11:35:39;;;;;;;8.15;6.60;;;19.50;51.20;;;;;;5066455;28;20174;-64
2020/12/09 11:38:05;;;;;;;6.05;5.45;;;19.60;51.20;;;;;;5066394;28;20934;-64
2020/12/09 11:40:30;;;;;;;5.97;5.32;;;19.60;51.10;;;;;;5048175;28;20967;-66
2020/12/09 11:42:56;;;;;;;7.15;6.05;;;19.70;51.00;;;;;;5066189;28;20185;-64
2020/12/09 11:45:21;;;;;;;6.80;6.00;;;19.70;51.00;;;;;;5066590;28;20174;-65
2020/12/09 11:47:47;;;;;;;5.95;5.22;;;19.70;50.90;;;;;;5030759;28;20183;-66
2020/12/09 11:50:13;;;;;;;6.50;5.90;;;19.70;50.90;;;;;;5046004;28;20213;-65
2020/12/09 11:52:39;;;;;;;6.85;5.90;;;19.70;50.80;;;;;;5028241;28;20249;-65
2020/12/09 11:55:04;;;;;;;6.38;5.78;;;19.80;51.40;;;;;;5045723;28;20194;-67
2020/12/09 11:57:30;;;;;;;7.53;6.07;;;19.80;50.80;;;;;;5045167;28;20175;-65
2020/12/09 11:59:56;;;;;;;6.13;5.55;;;19.80;50.80;;;;;;5045791;28;20175;-65
2020/12/09 12:02:21;;;;;;;8.57;6.05;;;19.80;50.80;;;;;;5045815;28;20667;-66
2020/12/09 12:04:49;;;;;;;7.53;5.88;;;19.90;50.70;;;;;;5045863;28;20588;-66
2020/12/09 12:07:15;;;;;;;7.30;5.60;;;19.80;50.70;;;;;;5045987;28;20207;-65
2020/12/09 12:09:42;;;;;;;7.93;5.43;;;19.90;50.70;;;;;;5045524;28;20210;-68
2020/12/09 12:12:08;;;;;;;8.15;6.00;;;19.90;50.70;;;;;;5045680;28;20535;-66
2020/12/09 12:14:35;;;;;;;7.40;6.45;;;19.90;50.60;;;;;;5045452;28;20191;-66
2020/12/09 12:17:00;;;;;;;6.28;5.60;;;19.80;50.70;;;;;;5045700;28;20175;-66
2020/12/09 12:19:26;;;;;;;6.95;5.97;;;19.80;50.80;;;;;;5027633;28;20179;-64
2020/12/09 12:21:51;;;;;;;7.70;6.07;;;19.80;50.80;;;;;;5061802;28;20692;-66
2020/12/09 12:24:17;;;;;;;8.43;6.63;;;19.90;50.90;;;;;;5065388;28;20206;-67
2020/12/09 12:26:43;;;;;;;6.68;6.00;;;19.80;50.80;;;;;;5065324;28;20182;-66
2020/12/09 12:29:08;;;;;;;6.93;5.88;;;19.80;50.80;;;;;;5065363;28;20174;-65
2020/12/09 12:31:34;;;;;;;6.57;5.60;;;19.90;50.90;;;;;;5047640;28;20291;-64
2020/12/09 12:34:00;;;;;;;7.90;6.65;;;19.80;50.90;;;;;;5065462;28;20205;-66
2020/12/09 12:36:26;;;;;;;7.50;6.13;;;19.80;51.00;;;;;;5047903;28;20621;-64
2020/12/09 12:38:51;;;;;;;6.47;5.82;;;19.80;51.00;;;;;;5064882;28;20174;-64
2020/12/09 12:41:17;;;;;;;7.68;6.38;;;19.80;51.10;;;;;;5065031;28;20214;-65
2020/12/09 12:43:42;;;;;;;7.45;6.75;;;19.70;50.90;;;;;;5065211;28;20231;-66